sensor_id;sensor_type;location;lat;lon;timestamp;P1;durP1;ratioP1;P2;durP2;ratioP2
7263;SDS011;3673;52.480;13.348;2022-08-01T00:01:13;5.15;;;3.70;;
7263;SDS011;3673;52.480;13.348;2022-08-01T00:03:40;6.38;;;3.35;;
7263;SDS011;3673;52.480;13.348;2022-08-01T00:06:07;7.00;;;3.58;;
7263;SDS011;3673;52.480;13.348;2022-08-01T00:08:34;4.82;;;4.10;;
7263;SDS011;3673;52.480;13.348;2022-08-01T00:11:00;4.13;;;3.60;;
7263;SDS011;3673;52.480;13.348;2022-08-01T00:13:27;4.63;;;3.67;;
7263;SDS011;3673;52.480;13.348;2022-08-01T00:15:54;4.82;;;3.30;;
7263;SDS011;3673;52.480;13.348;2022-08-01T00:18:22;5.30;;;4.05;;
7263;SDS011;3673;52.480;13.348;2022-08-01T00:20:49;6.32;;;3.65;;
7263;SDS011;3673;52.480;13.348;2022-08-01T00:23:16;4.00;;;3.58;;
7263;SDS011;3673;52.480;13.348;2022-08-01T00:25:43;3.85;;;3.55;;
7263;SDS011;3673;52.480;13.348;2022-08-01T00:28:09;6.47;;;3.92;;
7263;SDS011;3673;52.480;13.348;2022-08-01T00:30:38;4.35;;;3.75;;
7263;SDS011;3673;52.480;13.348;2022-08-01T00:33:05;6.32;;;4.72;;
7263;SDS011;3673;52.480;13.348;2022-08-01T00:35:33;4.90;;;4.15;;
7263;SDS011;3673;52.480;13.348;2022-08-01T00:38:00;5.40;;;4.00;;
7263;SDS011;3673;52.480;13.348;2022-08-01T00:40:27;5.53;;;3.95;;
7263;SDS011;3673;52.480;13.348;2022-08-01T00:42:54;6.65;;;4.50;;
7263;SDS011;3673;52.480;13.348;2022-08-01T00:45:20;8.32;;;4.22;;
7263;SDS011;3673;52.480;13.348;2022-08-01T00:47:47;4.30;;;3.88;;
7263;SDS011;3673;52.480;13.348;2022-08-01T00:50:14;4.22;;;3.83;;
7263;SDS011;3673;52.480;13.348;2022-08-01T00:52:42;4.63;;;3.78;;
7263;SDS011;3673;52.480;13.348;2022-08-01T00:55:10;4.80;;;4.03;;
7263;SDS011;3673;52.480;13.348;2022-08-01T00:57:38;5.57;;;4.05;;
7263;SDS011;3673;52.480;13.348;2022-08-01T01:00:06;4.22;;;3.42;;
7263;SDS011;3673;52.480;13.348;2022-08-01T01:02:35;4.10;;;3.70;;
7263;SDS011;3673;52.480;13.348;2022-08-01T01:05:02;4.90;;;3.78;;
7263;SDS011;3673;52.480;13.348;2022-08-01T01:07:31;5.13;;;4.00;;
7263;SDS011;3673;52.480;13.348;2022-08-01T01:10:12;4.75;;;3.65;;
7263;SDS011;3673;52.480;13.348;2022-08-01T01:12:47;4.30;;;3.90;;
7263;SDS011;3673;52.480;13.348;2022-08-01T01:15:22;6.03;;;3.83;;
7263;SDS011;3673;52.480;13.348;2022-08-01T01:17:56;5.75;;;3.80;;
7263;SDS011;3673;52.480;13.348;2022-08-01T01:20:29;6.25;;;4.60;;
7263;SDS011;3673;52.480;13.348;2022-08-01T01:23:05;4.40;;;4.03;;
7263;SDS011;3673;52.480;13.348;2022-08-01T01:25:58;4.47;;;4.07;;
7263;SDS011;3673;52.480;13.348;2022-08-01T01:28:40;5.20;;;;;
7263;SDS011;3673;52.480;13.348;2022-08-01T01:31:33;4.30;;;3.90;;
7263;SDS011;3673;52.480;13.348;2022-08-01T01:34:08;4.60;;;3.90;;
7263;SDS011;3673;52.480;13.348;2022-08-01T01:36:39;4.72;;;4.32;;
7263;SDS011;3673;52.480;13.348;2022-08-01T01:39:07;6.32;;;3.85;;
7263;SDS011;3673;52.480;13.348;2022-08-01T01:41:34;4.63;;;4.22;;
7263;SDS011;3673;52.480;13.348;2022-08-01T01:44:05;4.05;;;3.65;;
7263;SDS011;3673;52.480;13.348;2022-08-01T01:46:33;5.40;;;4.20;;
7263;SDS011;3673;52.480;13.348;2022-08-01T01:49:01;5.40;;;4.10;;
7263;SDS011;3673;52.480;13.348;2022-08-01T01:51:29;4.30;;;3.90;;
7263;SDS011;3673;52.480;13.348;2022-08-01T01:53:57;4.65;;;4.13;;
7263;SDS011;3673;52.480;13.348;2022-08-01T01:56:27;6.95;;;4.97;;
7263;SDS011;3673;52.480;13.348;2022-08-01T01:58:56;5.38;;;4.65;;
7263;SDS011;3673;52.480;13.348;2022-08-01T02:01:28;5.97;;;4.10;;
7263;SDS011;3673;52.480;13.348;2022-08-01T02:03:58;5.63;;;4.15;;
7263;SDS011;3673;52.480;13.348;2022-08-01T02:06:28;5.25;;;4.30;;
7263;SDS011;3673;52.480;13.348;2022-08-01T02:08:57;4.60;;;3.70;;
7263;SDS011;3673;52.480;13.348;2022-08-01T02:11:27;4.20;;;3.80;;
7263;SDS011;3673;52.480;13.348;2022-08-01T02:13:55;5.18;;;4.53;;
7263;SDS011;3673;52.480;13.348;2022-08-01T02:16:25;8.60;;;4.50;;
7263;SDS011;3673;52.480;13.348;2022-08-01T02:18:57;6.47;;;4.60;;
7263;SDS011;3673;52.480;13.348;2022-08-01T02:21:25;5.93;;;4.72;;
7263;SDS011;3673;52.480;13.348;2022-08-01T02:26:46;5.70;;;4.50;;
7263;SDS011;3673;52.480;13.348;2022-08-01T02:29:20;5.95;;;5.10;;
7263;SDS011;3673;52.480;13.348;2022-08-01T02:31:54;6.82;;;4.57;;
7263;SDS011;3673;52.480;13.348;2022-08-01T02:34:22;6.07;;;4.95;;
7263;SDS011;3673;52.480;13.348;2022-08-01T02:36:56;7.07;;;5.15;;
7263;SDS011;3673;52.480;13.348;2022-08-01T02:39:26;5.65;;;5.00;;
7263;SDS011;3673;52.480;13.348;2022-08-01T02:41:57;6.32;;;5.70;;
7263;SDS011;3673;52.480;13.348;2022-08-01T02:44:28;5.60;;;5.00;;
7263;SDS011;3673;52.480;13.348;2022-08-01T02:47:02;7.35;;;5.32;;
7263;SDS011;3673;52.480;13.348;2022-08-01T02:49:31;5.63;;;5.18;;
7263;SDS011;3673;52.480;13.348;2022-08-01T02:52:01;7.65;;;5.22;;
7263;SDS011;3673;52.480;13.348;2022-08-01T02:54:34;5.82;;;5.22;;
7263;SDS011;3673;52.480;13.348;2022-08-01T02:57:02;7.80;;;5.60;;
7263;SDS011;3673;52.480;13.348;2022-08-01T02:59:31;7.15;;;5.47;;
7263;SDS011;3673;52.480;13.348;2022-08-01T03:02:04;9.85;;;4.95;;
7263;SDS011;3673;52.480;13.348;2022-08-01T03:04:33;6.10;;;4.50;;
7263;SDS011;3673;52.480;13.348;2022-08-01T03:07:02;7.70;;;5.10;;
7263;SDS011;3673;52.480;13.348;2022-08-01T03:09:32;6.38;;;5.70;;
7263;SDS011;3673;52.480;13.348;2022-08-01T03:12:08;5.50;;;5.00;;
7263;SDS011;3673;52.480;13.348;2022-08-01T03:14:39;7.03;;;5.05;;
7263;SDS011;3673;52.480;13.348;2022-08-01T03:17:09;5.57;;;4.80;;
7263;SDS011;3673;52.480;13.348;2022-08-01T03:19:37;6.57;;;5.07;;
7263;SDS011;3673;52.480;13.348;2022-08-01T03:22:05;5.47;;;4.97;;
7263;SDS011;3673;52.480;13.348;2022-08-01T03:24:35;11.35;;;5.47;;
7263;SDS011;3673;52.480;13.348;2022-08-01T03:27:05;5.25;;;4.80;;
7263;SDS011;3673;52.480;13.348;2022-08-01T03:29:33;5.25;;;4.80;;
7263;SDS011;3673;52.480;13.348;2022-08-01T03:32:02;7.03;;;4.95;;
7263;SDS011;3673;52.480;13.348;2022-08-01T03:34:31;5.20;;;4.70;;
7263;SDS011;3673;52.480;13.348;2022-08-01T03:37:02;5.95;;;5.20;;
7263;SDS011;3673;52.480;13.348;2022-08-01T03:39:34;6.40;;;4.88;;
7263;SDS011;3673;52.480;13.348;2022-08-01T03:42:12;8.18;;;5.38;;
7263;SDS011;3673;52.480;13.348;2022-08-01T03:44:43;5.60;;;5.10;;
7263;SDS011;3673;52.480;13.348;2022-08-01T03:47:19;6.10;;;5.00;;
7263;SDS011;3673;52.480;13.348;2022-08-01T03:49:53;6.90;;;5.13;;
7263;SDS011;3673;52.480;13.348;2022-08-01T03:52:22;8.75;;;4.70;;
7263;SDS011;3673;52.480;13.348;2022-08-01T03:54:50;6.93;;;5.03;;
7263;SDS011;3673;52.480;13.348;2022-08-01T03:57:20;6.03;;;4.93;;
7263;SDS011;3673;52.480;13.348;2022-08-01T03:59:50;7.15;;;4.97;;
7263;SDS011;3673;52.480;13.348;2022-08-01T04:02:18;9.45;;;5.25;;
7263;SDS011;3673;52.480;13.348;2022-08-01T04:04:46;10.55;;;5.57;;
7263;SDS011;3673;52.480;13.348;2022-08-01T04:07:24;6.07;;;5.47;;
7263;SDS011;3673;52.480;13.348;2022-08-01T04:09:53;10.25;;;5.30;;
7263;SDS011;3673;52.480;13.348;2022-08-01T04:12:20;5.55;;;5.00;;
7263;SDS011;3673;52.480;13.348;2022-08-01T04:14:47;7.47;;;5.90;;
7263;SDS011;3673;52.480;13.348;2022-08-01T04:17:15;9.82;;;7.00;;
7263;SDS011;3673;52.480;13.348;2022-08-01T04:19:43;10.43;;;7.00;;
7263;SDS011;3673;52.480;13.348;2022-08-01T04:22:11;10.63;;;7.47;;
7263;SDS011;3673;52.480;13.348;2022-08-01T04:24:42;9.27;;;7.53;;
7263;SDS011;3673;52.480;13.348;2022-08-01T04:27:15;9.32;;;8.02;;
7263;SDS011;3673;52.480;13.348;2022-08-01T04:29:48;11.45;;;7.25;;
7263;SDS011;3673;52.480;13.348;2022-08-01T04:32:17;9.85;;;7.55;;
7263;SDS011;3673;52.480;13.348;2022-08-01T04:34:47;9.73;;;7.43;;
7263;SDS011;3673;52.480;13.348;2022-08-01T04:37:15;8.32;;;7.10;;
7263;SDS011;3673;52.480;13.348;2022-08-01T04:39:46;9.05;;;7.25;;
7263;SDS011;3673;52.480;13.348;2022-08-01T04:42:16;9.10;;;7.20;;
7263;SDS011;3673;52.480;13.348;2022-08-01T04:44:44;8.55;;;7.45;;
7263;SDS011;3673;52.480;13.348;2022-08-01T04:47:11;10.20;;;7.65;;
7263;SDS011;3673;52.480;13.348;2022-08-01T04:49:38;9.15;;;7.95;;
7263;SDS011;3673;52.480;13.348;2022-08-01T04:52:06;12.23;;;7.65;;
7263;SDS011;3673;52.480;13.348;2022-08-01T04:54:34;8.60;;;7.50;;
7263;SDS011;3673;52.480;13.348;2022-08-01T04:57:04;11.57;;;8.68;;
7263;SDS011;3673;52.480;13.348;2022-08-01T04:59:32;8.60;;;7.65;;
7263;SDS011;3673;52.480;13.348;2022-08-01T05:02:07;9.68;;;8.70;;
7263;SDS011;3673;52.480;13.348;2022-08-01T05:04:37;9.77;;;8.27;;
7263;SDS011;3673;52.480;13.348;2022-08-01T05:07:06;11.10;;;8.07;;
7263;SDS011;3673;52.480;13.348;2022-08-01T05:09:33;13.60;;;8.25;;
7263;SDS011;3673;52.480;13.348;2022-08-01T05:12:01;8.40;;;7.22;;
7263;SDS011;3673;52.480;13.348;2022-08-01T05:14:31;11.40;;;8.25;;
7263;SDS011;3673;52.480;13.348;2022-08-01T05:16:59;11.30;;;8.57;;
7263;SDS011;3673;52.480;13.348;2022-08-01T05:19:28;9.65;;;8.70;;
7263;SDS011;3673;52.480;13.348;2022-08-01T05:21:56;11.00;;;8.30;;
7263;SDS011;3673;52.480;13.348;2022-08-01T05:24:23;9.60;;;8.55;;
7263;SDS011;3673;52.480;13.348;2022-08-01T05:26:50;10.70;;;9.40;;
7263;SDS011;3673;52.480;13.348;2022-08-01T05:29:18;11.95;;;8.23;;
7263;SDS011;3673;52.480;13.348;2022-08-01T05:31:45;19.85;;;14.88;;
7263;SDS011;3673;52.480;13.348;2022-08-01T05:34:12;8.60;;;7.70;;
7263;SDS011;3673;52.480;13.348;2022-08-01T05:36:39;8.68;;;6.85;;
7263;SDS011;3673;52.480;13.348;2022-08-01T05:39:06;9.60;;;7.85;;
7263;SDS011;3673;52.480;13.348;2022-08-01T05:41:33;7.85;;;7.05;;
7263;SDS011;3673;52.480;13.348;2022-08-01T05:44:01;7.05;;;6.43;;
7263;SDS011;3673;52.480;13.348;2022-08-01T05:46:30;8.82;;;6.45;;
7263;SDS011;3673;52.480;13.348;2022-08-01T05:48:57;12.88;;;7.25;;
7263;SDS011;3673;52.480;13.348;2022-08-01T05:51:24;8.15;;;7.18;;
7263;SDS011;3673;52.480;13.348;2022-08-01T05:53:52;10.18;;;7.38;;
7263;SDS011;3673;52.480;13.348;2022-08-01T05:56:19;7.25;;;6.65;;
7263;SDS011;3673;52.480;13.348;2022-08-01T05:58:47;7.88;;;7.07;;
7263;SDS011;3673;52.480;13.348;2022-08-01T06:01:15;6.50;;;5.90;;
7263;SDS011;3673;52.480;13.348;2022-08-01T06:03:43;7.30;;;6.57;;
7263;SDS011;3673;52.480;13.348;2022-08-01T06:06:10;8.27;;;7.47;;
7263;SDS011;3673;52.480;13.348;2022-08-01T06:08:39;9.23;;;6.47;;
7263;SDS011;3673;52.480;13.348;2022-08-01T06:11:05;8.98;;;6.60;;
7263;SDS011;3673;52.480;13.348;2022-08-01T06:13:32;8.90;;;7.13;;
7263;SDS011;3673;52.480;13.348;2022-08-01T06:15:59;8.57;;;7.63;;
7263;SDS011;3673;52.480;13.348;2022-08-01T06:18:26;8.77;;;7.55;;
7263;SDS011;3673;52.480;13.348;2022-08-01T06:20:54;8.23;;;7.18;;
7263;SDS011;3673;52.480;13.348;2022-08-01T06:23:21;7.82;;;7.00;;
7263;SDS011;3673;52.480;13.348;2022-08-01T06:25:48;8.50;;;7.57;;
7263;SDS011;3673;52.480;13.348;2022-08-01T06:28:19;8.02;;;7.22;;
7263;SDS011;3673;52.480;13.348;2022-08-01T06:30:45;9.07;;;6.90;;
7263;SDS011;3673;52.480;13.348;2022-08-01T06:33:12;8.90;;;6.82;;
7263;SDS011;3673;52.480;13.348;2022-08-01T06:35:39;9.15;;;7.25;;
7263;SDS011;3673;52.480;13.348;2022-08-01T06:38:07;7.80;;;7.00;;
7263;SDS011;3673;52.480;13.348;2022-08-01T06:40:34;7.72;;;6.93;;
7263;SDS011;3673;52.480;13.348;2022-08-01T06:43:00;8.57;;;6.63;;
7263;SDS011;3673;52.480;13.348;2022-08-01T06:45:27;8.50;;;6.63;;
7263;SDS011;3673;52.480;13.348;2022-08-01T06:47:54;7.18;;;6.40;;
7263;SDS011;3673;52.480;13.348;2022-08-01T06:50:21;8.07;;;5.70;;
7263;SDS011;3673;52.480;13.348;2022-08-01T06:52:47;6.70;;;6.03;;
7263;SDS011;3673;52.480;13.348;2022-08-01T06:55:16;5.68;;;5.20;;
7263;SDS011;3673;52.480;13.348;2022-08-01T06:57:46;6.07;;;5.35;;
7263;SDS011;3673;52.480;13.348;2022-08-01T07:00:14;6.40;;;4.72;;
7263;SDS011;3673;52.480;13.348;2022-08-01T07:02:43;6.30;;;5.47;;
7263;SDS011;3673;52.480;13.348;2022-08-01T07:05:10;5.43;;;4.93;;
7263;SDS011;3673;52.480;13.348;2022-08-01T07:07:37;5.40;;;4.80;;
7263;SDS011;3673;52.480;13.348;2022-08-01T07:10:04;5.20;;;4.70;;
7263;SDS011;3673;52.480;13.348;2022-08-01T07:12:34;5.95;;;4.63;;
7263;SDS011;3673;52.480;13.348;2022-08-01T07:15:03;4.57;;;4.20;;
7263;SDS011;3673;52.480;13.348;2022-08-01T07:17:31;5.47;;;4.13;;
7263;SDS011;3673;52.480;13.348;2022-08-01T07:19:57;4.65;;;3.92;;
7263;SDS011;3673;52.480;13.348;2022-08-01T07:22:24;4.65;;;4.25;;
7263;SDS011;3673;52.480;13.348;2022-08-01T07:24:51;3.47;;;3.17;;
7263;SDS011;3673;52.480;13.348;2022-08-01T07:27:18;6.28;;;3.72;;
7263;SDS011;3673;52.480;13.348;2022-08-01T07:29:46;3.95;;;3.35;;
7263;SDS011;3673;52.480;13.348;2022-08-01T07:32:13;3.95;;;3.55;;
7263;SDS011;3673;52.480;13.348;2022-08-01T07:34:40;4.32;;;3.40;;
7263;SDS011;3673;52.480;13.348;2022-08-01T07:37:06;3.90;;;3.20;;
7263;SDS011;3673;52.480;13.348;2022-08-01T07:39:33;3.60;;;3.30;;
7263;SDS011;3673;52.480;13.348;2022-08-01T07:42:00;5.72;;;3.20;;
7263;SDS011;3673;52.480;13.348;2022-08-01T07:44:26;4.45;;;3.05;;
7263;SDS011;3673;52.480;13.348;2022-08-01T07:46:54;4.93;;;3.40;;
7263;SDS011;3673;52.480;13.348;2022-08-01T07:49:21;6.82;;;3.40;;
7263;SDS011;3673;52.480;13.348;2022-08-01T07:51:48;3.72;;;3.20;;
7263;SDS011;3673;52.480;13.348;2022-08-01T07:54:15;4.80;;;3.50;;
7263;SDS011;3673;52.480;13.348;2022-08-01T07:56:42;4.22;;;3.53;;
7263;SDS011;3673;52.480;13.348;2022-08-01T07:59:09;5.45;;;3.65;;
7263;SDS011;3673;52.480;13.348;2022-08-01T08:01:35;6.30;;;4.30;;
7263;SDS011;3673;52.480;13.348;2022-08-01T08:04:03;4.68;;;4.05;;
7263;SDS011;3673;52.480;13.348;2022-08-01T08:06:30;4.38;;;3.97;;
7263;SDS011;3673;52.480;13.348;2022-08-01T08:08:57;4.72;;;4.28;;
7263;SDS011;3673;52.480;13.348;2022-08-01T08:11:23;6.68;;;5.22;;
7263;SDS011;3673;52.480;13.348;2022-08-01T08:13:50;7.85;;;6.13;;
7263;SDS011;3673;52.480;13.348;2022-08-01T08:16:17;6.30;;;5.35;;
7263;SDS011;3673;52.480;13.348;2022-08-01T08:18:45;6.35;;;5.15;;
7263;SDS011;3673;52.480;13.348;2022-08-01T08:21:13;8.55;;;5.63;;
7263;SDS011;3673;52.480;13.348;2022-08-01T08:23:40;7.38;;;5.28;;
7263;SDS011;3673;52.480;13.348;2022-08-01T08:26:25;6.60;;;5.97;;
7263;SDS011;3673;52.480;13.348;2022-08-01T08:28:51;6.63;;;5.00;;
7263;SDS011;3673;52.480;13.348;2022-08-01T08:31:18;6.28;;;5.00;;
7263;SDS011;3673;52.480;13.348;2022-08-01T08:33:45;6.60;;;5.15;;
7263;SDS011;3673;52.480;13.348;2022-08-01T08:36:14;9.60;;;5.63;;
7263;SDS011;3673;52.480;13.348;2022-08-01T08:38:41;5.05;;;4.55;;
7263;SDS011;3673;52.480;13.348;2022-08-01T08:41:08;6.75;;;4.75;;
7263;SDS011;3673;52.480;13.348;2022-08-01T08:43:35;4.97;;;4.40;;
7263;SDS011;3673;52.480;13.348;2022-08-01T08:46:02;5.93;;;4.75;;
7263;SDS011;3673;52.480;13.348;2022-08-01T08:48:31;8.27;;;4.70;;
7263;SDS011;3673;52.480;13.348;2022-08-01T08:50:58;2.67;;;2.47;;
7263;SDS011;3673;52.480;13.348;2022-08-01T08:53:28;2.60;;;2.40;;
7263;SDS011;3673;52.480;13.348;2022-08-01T08:55:58;2.95;;;2.58;;
7263;SDS011;3673;52.480;13.348;2022-08-01T08:58:25;2.60;;;2.40;;
7263;SDS011;3673;52.480;13.348;2022-08-01T09:00:53;3.35;;;2.40;;
7263;SDS011;3673;52.480;13.348;2022-08-01T09:03:20;5.13;;;2.15;;
7263;SDS011;3673;52.480;13.348;2022-08-01T09:05:47;2.40;;;1.90;;
7263;SDS011;3673;52.480;13.348;2022-08-01T09:08:14;6.78;;;2.42;;
7263;SDS011;3673;52.480;13.348;2022-08-01T09:10:42;3.20;;;2.33;;
7263;SDS011;3673;52.480;13.348;2022-08-01T09:13:09;2.80;;;2.53;;
7263;SDS011;3673;52.480;13.348;2022-08-01T09:15:42;2.67;;;2.00;;
7263;SDS011;3673;52.480;13.348;2022-08-01T09:18:29;1.70;;;1.42;;
7263;SDS011;3673;52.480;13.348;2022-08-01T09:23:47;1.55;;;1.33;;
7263;SDS011;3673;52.480;13.348;2022-08-01T09:26:19;4.32;;;2.15;;
7263;SDS011;3673;52.480;13.348;2022-08-01T09:28:48;4.60;;;1.73;;
7263;SDS011;3673;52.480;13.348;2022-08-01T09:31:15;2.10;;;1.90;;
7263;SDS011;3673;52.480;13.348;2022-08-01T09:33:48;3.80;;;2.28;;
7263;SDS011;3673;52.480;13.348;2022-08-01T09:36:17;2.42;;;2.10;;
7263;SDS011;3673;52.480;13.348;2022-08-01T09:38:45;2.95;;;2.03;;
7263;SDS011;3673;52.480;13.348;2022-08-01T09:41:11;4.63;;;2.45;;
7263;SDS011;3673;52.480;13.348;2022-08-01T09:43:40;3.15;;;2.08;;
7263;SDS011;3673;52.480;13.348;2022-08-01T09:46:16;2.25;;;2.05;;
7263;SDS011;3673;52.480;13.348;2022-08-01T09:48:54;2.63;;;2.40;;
7263;SDS011;3673;52.480;13.348;2022-08-01T09:51:33;3.33;;;2.25;;
7263;SDS011;3673;52.480;13.348;2022-08-01T09:54:02;2.25;;;1.92;;
7263;SDS011;3673;52.480;13.348;2022-08-01T09:56:37;3.75;;;2.10;;
7263;SDS011;3673;52.480;13.348;2022-08-01T09:59:08;2.03;;;1.90;;
7263;SDS011;3673;52.480;13.348;2022-08-01T10:01:42;1.95;;;1.85;;
7263;SDS011;3673;52.480;13.348;2022-08-01T10:04:11;2.17;;;1.90;;
7263;SDS011;3673;52.480;13.348;2022-08-01T10:06:40;5.07;;;2.22;;
7263;SDS011;3673;52.480;13.348;2022-08-01T10:09:09;5.35;;;2.30;;
7263;SDS011;3673;52.480;13.348;2022-08-01T10:11:38;1.90;;;1.80;;
7263;SDS011;3673;52.480;13.348;2022-08-01T10:14:09;3.65;;;2.13;;
7263;SDS011;3673;52.480;13.348;2022-08-01T10:16:38;2.17;;;1.90;;
7263;SDS011;3673;52.480;13.348;2022-08-01T10:19:06;3.30;;;2.28;;
7263;SDS011;3673;52.480;13.348;2022-08-01T10:21:33;2.28;;;1.77;;
7263;SDS011;3673;52.480;13.348;2022-08-01T10:24:02;4.25;;;1.73;;
7263;SDS011;3673;52.480;13.348;2022-08-01T10:26:32;3.42;;;2.08;;
7263;SDS011;3673;52.480;13.348;2022-08-01T10:29:00;3.50;;;2.10;;
7263;SDS011;3673;52.480;13.348;2022-08-01T10:31:30;2.15;;;1.95;;
7263;SDS011;3673;52.480;13.348;2022-08-01T10:33:58;2.65;;;1.75;;
7263;SDS011;3673;52.480;13.348;2022-08-01T10:36:25;3.42;;;2.20;;
7263;SDS011;3673;52.480;13.348;2022-08-01T10:38:53;2.50;;;1.88;;
7263;SDS011;3673;52.480;13.348;2022-08-01T10:41:21;2.53;;;1.90;;
7263;SDS011;3673;52.480;13.348;2022-08-01T10:43:50;3.88;;;1.73;;
7263;SDS011;3673;52.480;13.348;2022-08-01T10:46:18;3.65;;;1.60;;
7263;SDS011;3673;52.480;13.348;2022-08-01T10:48:49;2.53;;;1.83;;
7263;SDS011;3673;52.480;13.348;2022-08-01T10:51:21;3.80;;;1.40;;
7263;SDS011;3673;52.480;13.348;2022-08-01T10:53:50;1.70;;;1.60;;
7263;SDS011;3673;52.480;13.348;2022-08-01T10:56:18;2.10;;;1.80;;
7263;SDS011;3673;52.480;13.348;2022-08-01T10:58:47;1.60;;;1.50;;
7263;SDS011;3673;52.480;13.348;2022-08-01T11:01:15;1.70;;;1.58;;
7263;SDS011;3673;52.480;13.348;2022-08-01T11:03:57;5.13;;;1.55;;
7263;SDS011;3673;52.480;13.348;2022-08-01T11:06:41;4.35;;;2.45;;
7263;SDS011;3673;52.480;13.348;2022-08-01T11:09:17;1.35;;;1.10;;
7263;SDS011;3673;52.480;13.348;2022-08-01T11:11:57;0.98;;;0.88;;
7263;SDS011;3673;52.480;13.348;2022-08-01T11:14:28;2.20;;;1.00;;
7263;SDS011;3673;52.480;13.348;2022-08-01T11:16:55;2.10;;;1.08;;
7263;SDS011;3673;52.480;13.348;2022-08-01T11:28:40;2.10;;;1.90;;
7263;SDS011;3673;52.480;13.348;2022-08-01T11:31:29;1.55;;;1.45;;
7263;SDS011;3673;52.480;13.348;2022-08-01T11:33:57;4.65;;;1.60;;
7263;SDS011;3673;52.480;13.348;2022-08-01T11:36:26;1.58;;;1.30;;
7263;SDS011;3673;52.480;13.348;2022-08-01T11:39:13;3.72;;;1.85;;
7263;SDS011;3673;52.480;13.348;2022-08-01T11:41:42;2.70;;;1.80;;
7263;SDS011;3673;52.480;13.348;2022-08-01T11:44:11;2.20;;;2.00;;
7263;SDS011;3673;52.480;13.348;2022-08-01T11:46:51;3.10;;;2.78;;
7263;SDS011;3673;52.480;13.348;2022-08-01T11:49:29;3.60;;;2.10;;
7263;SDS011;3673;52.480;13.348;2022-08-01T11:52:01;2.95;;;2.10;;
7263;SDS011;3673;52.480;13.348;2022-08-01T11:54:31;1.60;;;1.50;;
7263;SDS011;3673;52.480;13.348;2022-08-01T11:57:01;4.57;;;2.28;;
7263;SDS011;3673;52.480;13.348;2022-08-01T11:59:35;2.03;;;1.73;;
7263;SDS011;3673;52.480;13.348;2022-08-01T12:02:04;4.40;;;2.45;;
7263;SDS011;3673;52.480;13.348;2022-08-01T12:04:47;4.28;;;2.10;;
7263;SDS011;3673;52.480;13.348;2022-08-01T12:07:18;1.38;;;1.27;;
7263;SDS011;3673;52.480;13.348;2022-08-01T12:09:46;1.48;;;1.38;;
7263;SDS011;3673;52.480;13.348;2022-08-01T12:12:17;1.55;;;1.30;;
7263;SDS011;3673;52.480;13.348;2022-08-01T12:14:44;2.75;;;1.00;;
7263;SDS011;3673;52.480;13.348;2022-08-01T12:17:20;0.70;;;0.70;;
7263;SDS011;3673;52.480;13.348;2022-08-01T12:19:54;2.35;;;1.10;;
7263;SDS011;3673;52.480;13.348;2022-08-01T12:22:23;1.85;;;1.08;;
7263;SDS011;3673;52.480;13.348;2022-08-01T12:24:51;1.48;;;1.13;;
7263;SDS011;3673;52.480;13.348;2022-08-01T12:27:25;3.45;;;1.15;;
7263;SDS011;3673;52.480;13.348;2022-08-01T12:29:54;6.97;;;1.33;;
7263;SDS011;3673;52.480;13.348;2022-08-01T12:32:24;2.95;;;1.10;;
7263;SDS011;3673;52.480;13.348;2022-08-01T12:34:55;1.40;;;1.30;;
7263;SDS011;3673;52.480;13.348;2022-08-01T12:37:24;2.75;;;1.73;;
7263;SDS011;3673;52.480;13.348;2022-08-01T12:39:51;1.17;;;1.08;;
7263;SDS011;3673;52.480;13.348;2022-08-01T12:42:19;3.55;;;1.27;;
7263;SDS011;3673;52.480;13.348;2022-08-01T12:44:47;4.80;;;1.60;;
7263;SDS011;3673;52.480;13.348;2022-08-01T12:47:17;1.92;;;1.50;;
7263;SDS011;3673;52.480;13.348;2022-08-01T12:49:46;2.15;;;1.55;;
7263;SDS011;3673;52.480;13.348;2022-08-01T12:52:14;3.35;;;1.55;;
7263;SDS011;3673;52.480;13.348;2022-08-01T12:55:00;3.33;;;1.30;;
7263;SDS011;3673;52.480;13.348;2022-08-01T12:57:34;4.57;;;1.17;;
7263;SDS011;3673;52.480;13.348;2022-08-01T13:00:09;2.22;;;1.63;;
7263;SDS011;3673;52.480;13.348;2022-08-01T13:02:40;2.72;;;1.90;;
7263;SDS011;3673;52.480;13.348;2022-08-01T13:05:08;1.77;;;1.67;;
7263;SDS011;3673;52.480;13.348;2022-08-01T13:07:37;1.30;;;1.20;;
7263;SDS011;3673;52.480;13.348;2022-08-01T13:10:10;1.27;;;1.17;;
7263;SDS011;3673;52.480;13.348;2022-08-01T13:12:40;1.40;;;1.27;;
7263;SDS011;3673;52.480;13.348;2022-08-01T13:15:18;1.85;;;1.52;;
7263;SDS011;3673;52.480;13.348;2022-08-01T13:17:48;3.63;;;1.30;;
7263;SDS011;3673;52.480;13.348;2022-08-01T13:20:22;2.95;;;1.35;;
7263;SDS011;3673;52.480;13.348;2022-08-01T13:22:57;4.43;;;1.48;;
7263;SDS011;3673;52.480;13.348;2022-08-01T13:25:47;3.55;;;1.60;;
7263;SDS011;3673;52.480;13.348;2022-08-01T13:28:17;2.08;;;1.17;;
7263;SDS011;3673;52.480;13.348;2022-08-01T13:30:55;2.15;;;1.38;;
7263;SDS011;3673;52.480;13.348;2022-08-01T13:33:25;1.25;;;1.15;;
7263;SDS011;3673;52.480;13.348;2022-08-01T13:35:55;2.08;;;1.35;;
7263;SDS011;3673;52.480;13.348;2022-08-01T13:38:22;2.10;;;1.30;;
7263;SDS011;3673;52.480;13.348;2022-08-01T13:41:04;1.83;;;1.10;;
7263;SDS011;3673;52.480;13.348;2022-08-01T13:43:31;1.73;;;1.00;;
7263;SDS011;3673;52.480;13.348;2022-08-01T13:45:59;1.60;;;1.20;;
7263;SDS011;3673;52.480;13.348;2022-08-01T13:48:28;3.08;;;0.85;;
7263;SDS011;3673;52.480;13.348;2022-08-01T13:50:57;3.10;;;1.67;;
7263;SDS011;3673;52.480;13.348;2022-08-01T13:53:24;10.05;;;4.90;;
7263;SDS011;3673;52.480;13.348;2022-08-01T13:55:51;2.63;;;1.00;;
7263;SDS011;3673;52.480;13.348;2022-08-01T13:58:22;6.28;;;1.23;;
7263;SDS011;3673;52.480;13.348;2022-08-01T14:00:49;0.80;;;0.63;;
7263;SDS011;3673;52.480;13.348;2022-08-01T14:03:16;2.33;;;1.23;;
7263;SDS011;3673;52.480;13.348;2022-08-01T14:05:43;0.65;;;0.50;;
7263;SDS011;3673;52.480;13.348;2022-08-01T14:08:10;2.80;;;0.60;;
7263;SDS011;3673;52.480;13.348;2022-08-01T14:10:37;3.33;;;0.98;;
7263;SDS011;3673;52.480;13.348;2022-08-01T14:13:04;1.30;;;0.60;;
7263;SDS011;3673;52.480;13.348;2022-08-01T14:15:32;3.50;;;0.93;;
7263;SDS011;3673;52.480;13.348;2022-08-01T14:17:59;2.17;;;0.85;;
7263;SDS011;3673;52.480;13.348;2022-08-01T14:20:26;1.10;;;0.88;;
7263;SDS011;3673;52.480;13.348;2022-08-01T14:22:53;2.72;;;0.80;;
7263;SDS011;3673;52.480;13.348;2022-08-01T14:25:20;1.02;;;0.90;;
7263;SDS011;3673;52.480;13.348;2022-08-01T14:27:46;0.98;;;0.68;;
7263;SDS011;3673;52.480;13.348;2022-08-01T14:30:13;1.02;;;0.73;;
7263;SDS011;3673;52.480;13.348;2022-08-01T14:32:41;1.35;;;1.05;;
7263;SDS011;3673;52.480;13.348;2022-08-01T14:35:08;0.98;;;0.77;;
7263;SDS011;3673;52.480;13.348;2022-08-01T14:37:35;1.63;;;0.82;;
7263;SDS011;3673;52.480;13.348;2022-08-01T14:40:02;0.80;;;0.80;;
7263;SDS011;3673;52.480;13.348;2022-08-01T14:42:33;1.92;;;1.23;;
7263;SDS011;3673;52.480;13.348;2022-08-01T14:45:01;1.23;;;0.75;;
7263;SDS011;3673;52.480;13.348;2022-08-01T14:47:29;2.55;;;1.10;;
7263;SDS011;3673;52.480;13.348;2022-08-01T14:49:57;2.80;;;2.50;;
7263;SDS011;3673;52.480;13.348;2022-08-01T14:52:24;1.20;;;1.10;;
7263;SDS011;3673;52.480;13.348;2022-08-01T14:54:50;1.20;;;0.68;;
7263;SDS011;3673;52.480;13.348;2022-08-01T14:57:17;0.88;;;0.77;;
7263;SDS011;3673;52.480;13.348;2022-08-01T14:59:44;0.73;;;0.73;;
7263;SDS011;3673;52.480;13.348;2022-08-01T15:02:12;2.63;;;1.30;;
7263;SDS011;3673;52.480;13.348;2022-08-01T15:04:41;2.17;;;1.88;;
7263;SDS011;3673;52.480;13.348;2022-08-01T15:07:10;2.15;;;0.88;;
7263;SDS011;3673;52.480;13.348;2022-08-01T15:09:39;0.82;;;0.80;;
7263;SDS011;3673;52.480;13.348;2022-08-01T15:12:06;1.20;;;1.10;;
7263;SDS011;3673;52.480;13.348;2022-08-01T15:14:34;6.43;;;2.78;;
7263;SDS011;3673;52.480;13.348;2022-08-01T15:17:13;3.03;;;1.45;;
7263;SDS011;3673;52.480;13.348;2022-08-01T15:19:40;7.00;;;5.40;;
7263;SDS011;3673;52.480;13.348;2022-08-01T15:22:07;5.38;;;1.63;;
7263;SDS011;3673;52.480;13.348;2022-08-01T15:24:35;1.52;;;1.30;;
7263;SDS011;3673;52.480;13.348;2022-08-01T15:27:02;2.00;;;1.25;;
7263;SDS011;3673;52.480;13.348;2022-08-01T15:29:29;6.20;;;1.17;;